Time;durP1;ratioP1;P1;durP2;ratioP2;P2;SDS_P1;SDS_P2;PMS_P1;PMS_P2;Temp;Humidity;BMP_temperature;BMP_pressure;BME280_temperature;BME280_humidity;BME280_pressure;Samples;Min_cycle;Max_cycle;Signal;HPM_P1;HPM_P2
2021/10/12 00:01:56;;;;;;;27.25;11.77;;;;;;;3.62;86.21;91335.63;4959831;28;20027;-90
2021/10/12 00:04:21;;;;;;;15.65;10.38;;;;;;;3.63;86.66;91333.81;4943837;28;20081;-90
2021/10/12 00:06:47;;;;;;;17.65;10.85;;;;;;;3.61;86.72;91344.41;4976074;28;20027;-90
2021/10/12 00:09:12;;;;;;;18.33;11.02;;;;;;;3.58;86.89;91332.81;4943456;28;20506;-88
2021/10/12 00:11:38;;;;;;;19.33;10.75;;;;;;;3.60;86.77;91337.69;4943536;28;20129;-89
2021/10/12 00:14:03;;;;;;;19.15;10.65;;;;;;;3.55;86.56;91335.19;4959755;28;20037;-90
2021/10/12 00:16:29;;;;;;;16.88;9.82;;;;;;;3.55;86.65;91335.19;4959721;28;20031;-90
2021/10/12 00:18:54;;;;;;;17.83;9.77;;;;;;;3.66;86.55;91338.41;4943446;28;20027;-89
2021/10/12 00:21:20;;;;;;;15.55;9.50;;;;;;;3.56;86.70;91340.06;4959161;28;20018;-89
2021/10/12 00:23:45;;;;;;;15.10;9.43;;;;;;;3.56;86.50;91336.72;4975463;28;20022;-89
2021/10/12 00:26:10;;;;;;;13.60;9.38;;;;;;;3.52;86.44;91335.72;4959347;28;20056;-91
2021/10/12 00:28:36;;;;;;;15.98;9.70;;;;;;;3.51;87.08;91334.97;4976753;28;20422;-89
2021/10/12 00:31:02;;;;;;;17.05;10.35;;;;;;;3.52;86.94;91338.31;4943369;28;20026;-90
2021/10/12 00:33:27;;;;;;;16.55;9.63;;;;;;;3.47;87.32;91339.13;4975577;28;20027;-89
2021/10/12 00:35:53;;;;;;;18.13;9.93;;;;;;;3.59;87.09;91336.16;4943142;28;20089;-91
2021/10/12 00:38:18;;;;;;;19.10;9.55;;;;;;;3.57;86.80;91327.97;4943321;28;20026;-90
2021/10/12 00:40:43;;;;;;;16.08;9.30;;;;;;;3.55;86.69;91323.06;4975406;28;20109;-89
2021/10/12 00:43:09;;;;;;;16.08;8.27;;;;;;;3.55;86.99;91330.03;4958575;28;20166;-89
2021/10/12 00:45:36;;;;;;;14.43;8.23;;;;;;;3.63;86.97;91326.84;4943123;28;20307;-89
2021/10/12 00:48:04;;;;;;;14.35;8.60;;;;;;;3.60;86.87;91324.81;4959388;28;20026;-90
2021/10/12 00:50:33;;;;;;;12.80;8.32;;;;;;;3.60;86.78;91322.22;5055524;23;20046;-87
2021/10/12 00:52:58;;;;;;;13.10;8.82;;;;;;;3.65;86.22;91322.19;5002623;28;20077;-86
2021/10/12 00:55:23;;;;;;;11.82;7.68;;;;;;;3.66;86.36;91326.28;4987284;28;20022;-87
2021/10/12 00:57:49;;;;;;;11.90;7.80;;;;;;;3.56;86.40;91316.84;5021513;28;20498;-87
2021/10/12 01:00:14;;;;;;;13.32;8.32;;;;;;;3.52;86.40;91321.03;5003621;28;20025;-86
2021/10/12 01:02:40;;;;;;;12.13;8.20;;;;;;;3.48;86.33;91314.13;4987125;28;20029;-87
2021/10/12 01:05:06;;;;;;;14.77;8.52;;;;;;;3.42;86.32;91310.81;5020921;28;20398;-87
2021/10/12 01:07:31;;;;;;;14.23;8.38;;;;;;;3.35;86.21;91316.31;5003349;28;20104;-87
2021/10/12 01:09:57;;;;;;;14.10;9.07;;;;;;;3.26;86.61;91310.22;5003275;28;20482;-87
2021/10/12 01:12:22;;;;;;;13.05;8.48;;;;;;;3.17;86.97;91301.56;4987559;28;20076;-86
2021/10/12 01:14:48;;;;;;;12.55;7.88;;;;;;;3.25;87.39;91300.97;4988481;28;20363;-87
2021/10/12 01:17:13;;;;;;;14.85;8.02;;;;;;;3.30;86.87;91295.75;5004296;28;20022;-88
2021/10/12 01:19:38;;;;;;;11.98;7.57;;;;;;;3.31;86.85;91297.28;5028017;28;20026;-88
2021/10/12 01:22:04;;;;;;;12.68;7.28;;;;;;;3.38;86.58;91291.03;5024619;28;20025;-87
2021/10/12 01:24:29;;;;;;;13.20;7.85;;;;;;;3.31;86.65;91286.22;5029242;28;20036;-87
2021/10/12 01:26:55;;;;;;;14.02;7.55;;;;;;;3.27;87.09;91288.56;5053572;28;20025;-87
2021/10/12 01:29:20;;;;;;;11.98;7.43;;;;;;;3.27;87.34;91286.00;5025006;28;20025;-88
2021/10/12 01:31:45;;;;;;;12.75;7.60;;;;;;;3.18;87.45;91292.81;5037991;28;20029;-87
2021/10/12 01:34:16;;;;;;;12.18;7.57;;;;;;;3.23;87.48;91287.59;5020724;28;20540;-87
2021/10/12 01:36:41;;;;;;;13.55;7.88;;;;;;;3.35;86.94;91284.63;5035981;28;20454;-86
2021/10/12 01:39:07;;;;;;;14.40;8.20;;;;;;;3.38;87.14;91289.22;5019262;28;20022;-87
2021/10/12 01:41:32;;;;;;;11.80;7.68;;;;;;;3.28;87.24;91282.38;5019053;28;20026;-86
2021/10/12 01:43:58;;;;;;;13.27;8.05;;;;;;;3.33;87.02;91282.34;5035119;28;20018;-86
2021/10/12 01:46:23;;;;;;;14.40;8.98;;;;;;;3.41;86.39;91287.94;5018588;28;20132;-87
2021/10/12 01:48:48;;;;;;;15.02;8.75;;;;;;;3.31;86.71;91293.94;5001976;28;20022;-86
2021/10/12 01:51:14;;;;;;;12.65;7.82;;;;;;;3.29;87.55;91286.50;5035088;28;20041;-86
2021/10/12 01:53:39;;;;;;;14.65;8.15;;;;;;;3.26;88.21;91286.28;5034324;28;20091;-85
2021/10/12 01:56:05;;;;;;;14.98;7.57;;;;;;;3.26;88.61;91287.06;5007261;28;20475;-85
2021/10/12 01:58:30;;;;;;;16.05;8.63;;;;;;;3.39;88.90;91287.41;4983121;28;20048;-86
2021/10/12 02:00:56;;;;;;;13.18;8.00;;;;;;;3.47;88.46;91289.41;4982443;28;20029;-86
2021/10/12 02:03:21;;;;;;;15.10;8.38;;;;;;;3.35;88.08;91295.69;5014280;28;20064;-86
2021/10/12 02:05:47;;;;;;;14.68;8.98;;;;;;;3.31;88.18;91299.09;5014530;28;20037;-86
2021/10/12 02:08:12;;;;;;;15.82;8.95;;;;;;;3.26;88.19;91305.09;4998359;28;20375;-86
2021/10/12 02:10:38;;;;;;;13.38;8.70;;;;;;;3.26;88.27;91305.09;5014615;28;20026;-88
2021/10/12 02:13:04;;;;;;;14.93;7.97;;;;;;;3.25;87.96;91295.81;4982248;28;20112;-87
2021/10/12 02:15:29;;;;;;;17.60;8.85;;;;;;;3.19;88.23;91288.41;4981484;28;20029;-85
2021/10/12 02:17:55;;;;;;;13.40;8.13;;;;;;;3.15;88.21;91272.75;4981326;28;20018;-86
2021/10/12 02:20:20;;;;;;;18.50;8.48;;;;;;;3.24;88.30;91294.28;5031993;28;20030;-87
2021/10/12 02:22:45;;;;;;;14.38;8.57;;;;;;;3.31;87.81;91299.88;5040042;28;20017;-87
2021/10/12 02:25:11;;;;;;;15.68;9.20;;;;;;;3.38;88.00;91293.63;5023801;28;20024;-87
2021/10/12 02:27:37;;;;;;;17.80;9.65;;;;;;;3.41;88.05;91288.69;5008043;28;20473;-87
2021/10/12 02:30:04;;;;;;;17.60;10.35;;;;;;;3.42;88.27;91276.56;5036657;28;20025;-87
2021/10/12 02:32:29;;;;;;;15.98;9.30;;;;;;;3.48;88.08;91263.34;5020437;28;20025;-86
2021/10/12 02:34:55;;;;;;;14.20;8.50;;;;;;;3.61;87.95;91256.78;5036756;28;20022;-86
2021/10/12 02:37:20;;;;;;;13.18;7.78;;;;;;;3.50;87.32;91247.63;5036715;28;20032;-86
2021/10/12 02:39:46;;;;;;;13.70;8.25;;;;;;;3.47;87.98;91253.34;5037277;28;20028;-86
2021/10/12 02:42:11;;;;;;;12.75;8.10;;;;;;;3.49;87.88;91248.66;5036929;28;20025;-87
2021/10/12 02:44:37;;;;;;;13.90;8.20;;;;;;;3.53;88.43;91244.47;5037433;28;20033;-87
2021/10/12 02:47:02;;;;;;;12.70;8.35;;;;;;;3.55;88.70;91238.03;5037278;28;20407;-87
2021/10/12 02:49:28;;;;;;;13.85;8.30;;;;;;;3.62;88.30;91227.38;5036810;28;20039;-85
2021/10/12 02:51:53;;;;;;;18.27;7.72;;;;;;;3.67;88.49;91223.94;5037303;28;20036;-87
2021/10/12 02:54:18;;;;;;;17.23;7.70;;;;;;;3.70;88.62;91224.16;5024579;28;20075;-87
2021/10/12 02:56:44;;;;;;;14.20;7.85;;;;;;;3.81;88.72;91219.63;5020245;28;20075;-87
2021/10/12 02:59:09;;;;;;;13.38;7.78;;;;;;;3.85;88.50;91197.41;5003850;28;20071;-87
2021/10/12 03:01:35;;;;;;;12.13;7.65;;;;;;;3.69;87.95;91202.00;5020324;28;20048;-86
2021/10/12 03:04:00;;;;;;;15.02;8.13;;;;;;;3.62;88.15;91201.59;5037488;28;20025;-87
2021/10/12 03:06:25;;;;;;;14.73;7.72;;;;;;;3.71;88.93;91210.25;5041014;28;20076;-86
2021/10/12 03:08:51;;;;;;;15.48;7.68;;;;;;;3.79;88.83;91201.88;5024840;28;20045;-87
2021/10/12 03:11:16;;;;;;;12.98;6.85;;;;;;;4.05;87.54;91211.81;5040802;28;20029;-87
2021/10/12 03:13:42;;;;;;;11.95;7.18;;;;;;;3.99;87.01;91210.38;5024925;28;20108;-86
2021/10/12 03:16:10;;;;;;;15.00;7.63;;;;;;;3.84;88.74;91209.53;5041378;28;20028;-87
2021/10/12 03:18:36;;;;;;;14.50;7.85;;;;;;;3.80;89.46;91203.41;5009916;28;20017;-88
2021/10/12 03:21:02;;;;;;;14.77;7.72;;;;;;;3.93;88.82;91206.34;5006126;28;20033;-86
2021/10/12 03:23:27;;;;;;;11.55;7.25;;;;;;;3.77;87.66;91196.22;5023981;28;20025;-87
2021/10/12 03:25:53;;;;;;;10.55;6.97;;;;;;;3.65;88.04;91192.56;4990154;28;20022;-87
2021/10/12 03:28:18;;;;;;;12.27;6.65;;;;;;;3.56;88.19;91187.25;5022670;28;20021;-88
2021/10/12 03:30:43;;;;;;;10.25;6.57;;;;;;;3.58;88.67;91185.91;5006336;28;20032;-88
2021/10/12 03:33:09;;;;;;;12.98;7.30;;;;;;;3.66;88.48;91183.75;5006595;28;20417;-88
2021/10/12 03:35:37;;;;;;;14.10;7.68;;;;;;;3.56;88.52;91192.41;5023478;28;20026;-88
2021/10/12 03:38:03;;;;;;;14.35;7.18;;;;;;;3.62;88.72;91191.28;5023356;28;20018;-88
2021/10/12 03:40:28;;;;;;;12.07;6.82;;;;;;;3.60;88.74;91183.06;5010192;28;20072;-87
2021/10/12 03:42:54;;;;;;;15.02;7.90;;;;;;;3.58;89.39;91191.06;5020383;28;20025;-87
2021/10/12 03:45:19;;;;;;;12.95;7.45;;;;;;;3.81;88.83;91192.03;5008701;28;20030;-87
2021/10/12 03:47:45;;;;;;;12.13;6.93;;;;;;;3.80;88.58;91198.25;5020406;28;20030;-86
2021/10/12 03:50:10;;;;;;;12.13;6.95;;;;;;;3.70;88.42;91185.50;5020092;28;20028;-87
2021/10/12 03:52:35;;;;;;;12.10;7.38;;;;;;;3.61;88.79;91189.75;5018472;28;20034;-86
2021/10/12 03:55:01;;;;;;;11.13;6.85;;;;;;;3.58;88.80;91195.47;5002774;28;20022;-86
2021/10/12 03:57:26;;;;;;;12.48;6.90;;;;;;;3.56;88.59;91176.94;5018340;28;20026;-86
2021/10/12 03:59:52;;;;;;;12.07;7.38;;;;;;;3.70;87.61;91177.75;5002373;28;20030;-86
2021/10/12 04:02:17;;;;;;;12.15;7.57;;;;;;;3.61;87.86;91169.16;4998956;28;20025;-85
2021/10/12 04:04:43;;;;;;;12.95;6.82;;;;;;;3.62;88.10;91164.75;4982616;28;20445;-86
2021/10/12 04:07:08;;;;;;;13.90;6.95;;;;;;;3.57;88.86;91157.88;5015219;28;20033;-86
2021/10/12 04:09:33;;;;;;;12.52;6.63;;;;;;;3.67;88.55;91155.13;4998369;28;20470;-86
2021/10/12 04:11:59;;;;;;;11.77;6.47;;;;;;;3.62;88.43;91155.22;5015179;28;20032;-86
2021/10/12 04:14:24;;;;;;;11.32;6.28;;;;;;;3.53;89.22;91147.34;5014681;28;20048;-86
2021/10/12 04:16:50;;;;;;;13.63;6.60;;;;;;;3.66;88.91;91152.84;5014752;28;20497;-85
2021/10/12 04:19:15;;;;;;;12.07;7.22;;;;;;;3.61;88.93;91153.69;5002851;28;20021;-85
2021/10/12 04:21:40;;;;;;;13.65;8.00;;;;;;;3.59;88.96;91156.53;5017680;28;20072;-86
2021/10/12 04:24:06;;;;;;;16.13;8.25;;;;;;;3.86;87.57;91164.69;5018070;28;20021;-86
2021/10/12 04:26:31;;;;;;;12.20;6.45;;;;;;;3.87;86.88;91166.19;5034254;28;20047;-85
2021/10/12 04:28:57;;;;;;;11.80;6.85;;;;;;;3.66;87.59;91166.47;5017631;28;20022;-85
2021/10/12 04:31:22;;;;;;;12.50;6.30;;;;;;;3.55;87.87;91152.22;5017636;28;20029;-86
2021/10/12 04:33:48;;;;;;;13.80;7.60;;;;;;;3.46;87.88;91152.06;5017564;28;20021;-86
2021/10/12 04:36:13;;;;;;;13.30;6.85;;;;;;;3.38;88.14;91154.50;5017892;28;20486;-86
2021/10/12 04:38:39;;;;;;;13.18;7.75;;;;;;;3.49;87.78;91140.44;5017498;28;20017;-85
2021/10/12 04:41:04;;;;;;;12.18;7.38;;;;;;;3.45;87.60;91139.47;5017817;28;20029;-85
2021/10/12 04:43:30;;;;;;;10.38;6.80;;;;;;;3.34;88.63;91149.91;5001333;28;20021;-85
2021/10/12 04:45:55;;;;;;;12.88;7.03;;;;;;;3.45;88.67;91160.84;5034309;28;20021;-86
2021/10/12 04:48:20;;;;;;;13.80;7.45;;;;;;;3.26;89.13;91150.53;5033804;28;20424;-86
2021/10/12 04:50:46;;;;;;;13.20;7.55;;;;;;;3.35;89.09;91154.00;5017361;28;20037;-86
2021/10/12 04:53:12;;;;;;;10.73;6.65;;;;;;;3.34;89.00;91149.91;5017544;28;20025;-86
2021/10/12 04:55:40;;;;;;;13.15;7.38;;;;;;;3.23;88.89;91133.06;5011254;28;20493;-86
2021/10/12 04:58:07;;;;;;;13.32;6.45;;;;;;;3.27;88.52;91134.03;4997778;28;20025;-85
2021/10/12 05:00:32;;;;;;;12.95;6.80;;;;;;;3.30;88.05;91138.63;5013836;28;20033;-86
2021/10/12 05:02:58;;;;;;;15.07;6.50;;;;;;;3.16;89.07;91142.16;4997329;28;20029;-86
2021/10/12 05:05:23;;;;;;;11.43;6.72;;;;;;;3.24;90.44;91155.19;4981248;28;20027;-86
2021/10/12 05:07:49;;;;;;;13.90;6.97;;;;;;;3.15;91.22;91159.44;4997436;28;20021;-86
2021/10/12 05:10:14;;;;;;;14.25;7.15;;;;;;;3.29;90.14;91168.00;4997536;28;20021;-87
2021/10/12 05:12:39;;;;;;;14.57;7.10;;;;;;;3.28;90.13;91157.97;4981104;28;20062;-86
2021/10/12 05:15:05;;;;;;;10.38;6.32;;;;;;;3.19;89.44;91147.53;5013676;28;20379;-86
2021/10/12 05:17:37;;;;;;;11.02;5.80;;;;;;;3.10;89.10;91136.31;4997073;28;20516;-86
2021/10/12 05:20:03;;;;;;;9.35;6.47;;;;;;;3.11;88.66;91141.19;5009053;28;20036;-86
2021/10/12 05:22:29;;;;;;;11.27;6.00;;;;;;;3.02;88.96;91136.91;5001909;28;20053;-86
2021/10/12 05:24:54;;;;;;;11.98;5.95;;;;;;;3.05;89.27;91129.41;4997063;28;20029;-85
2021/10/12 05:27:20;;;;;;;12.00;6.70;;;;;;;3.11;89.13;91119.81;5013112;28;20037;-86
2021/10/12 05:29:45;;;;;;;14.57;6.90;;;;;;;3.14;89.52;91119.25;4996002;28;20026;-86
2021/10/12 05:32:10;;;;;;;9.48;6.75;;;;;;;3.18;89.34;91133.13;4996655;28;20533;-87
2021/10/12 05:34:36;;;;;;;10.43;6.28;;;;;;;3.15;88.90;91145.78;4995265;28;20037;-84
2021/10/12 05:37:01;;;;;;;16.73;7.03;;;;;;;3.17;89.18;91138.53;4981040;28;20517;-84
2021/10/12 05:39:29;;;;;;;11.93;5.82;;;;;;;3.22;88.65;91138.50;4962786;28;20563;-85
2021/10/12 05:41:58;;;;;;;9.57;5.68;;;;;;;3.25;88.61;91145.63;4994931;28;20042;-85
2021/10/12 05:44:23;;;;;;;9.85;5.72;;;;;;;3.25;88.63;91136.13;4995589;28;20038;-84
2021/10/12 05:46:49;;;;;;;10.98;5.57;;;;;;;3.23;88.86;91138.19;4994430;28;20023;-85
2021/10/12 05:49:14;;;;;;;9.52;5.57;;;;;;;3.25;89.11;91136.13;4992384;28;20538;-84
2021/10/12 05:51:43;;;;;;;13.52;6.57;;;;;;;3.23;88.83;91133.06;4975998;28;20053;-85
2021/10/12 05:54:08;;;;;;;14.20;7.65;;;;;;;3.30;88.34;91128.31;4969004;28;20103;-86
2021/10/12 05:56:43;;;;;;;12.07;7.43;;;;;;;3.27;88.66;91121.16;5005547;28;20390;-85
2021/10/12 05:59:09;;;;;;;12.38;7.60;;;;;;;3.34;88.37;91133.69;5015337;28;20013;-86
2021/10/12 06:01:36;;;;;;;10.63;6.97;;;;;;;3.25;88.64;91130.97;5006123;28;20024;-86
2021/10/12 06:04:02;;;;;;;11.63;7.43;;;;;;;3.22;88.78;91126.38;5016473;28;20022;-86
2021/10/12 06:06:27;;;;;;;14.05;7.32;;;;;;;3.09;88.92;91127.06;5016951;28;20022;-86
2021/10/12 06:08:53;;;;;;;9.65;7.05;;;;;;;3.10;89.41;91128.56;5023831;28;20036;-84
2021/10/12 06:11:18;;;;;;;10.27;7.03;;;;;;;3.11;88.90;91117.25;5035461;28;20444;-88
2021/10/12 06:13:44;;;;;;;14.48;6.85;;;;;;;3.19;88.77;91128.75;5037104;28;20017;-88
2021/10/12 06:16:10;;;;;;;10.98;6.65;;;;;;;3.23;88.54;91137.44;4989384;28;20072;-86
2021/10/12 06:18:35;;;;;;;10.45;6.55;;;;;;;3.30;88.85;91132.72;5013375;28;20474;-86
2021/10/12 06:21:02;;;;;;;10.52;6.30;;;;;;;3.33;88.64;91135.50;4981382;28;20536;-86
2021/10/12 06:23:27;;;;;;;10.43;6.63;;;;;;;3.38;88.61;91133.88;4981591;28;20017;-87
2021/10/12 06:25:52;;;;;;;10.68;6.43;;;;;;;3.45;88.85;91132.50;5014438;28;20033;-87
2021/10/12 06:28:19;;;;;;;10.27;6.15;;;;;;;3.52;88.53;91134.72;4997354;28;20033;-88
2021/10/12 06:30:44;;;;;;;10.18;6.05;;;;;;;3.52;88.58;91124.41;5012584;28;20529;-88
2021/10/12 06:33:10;;;;;;;10.98;6.65;;;;;;;3.51;88.27;91125.47;4996191;28;20026;-86
2021/10/12 06:35:35;;;;;;;11.25;6.68;;;;;;;3.53;88.14;91133.66;4996738;28;20025;-87
2021/10/12 06:38:01;;;;;;;9.65;6.45;;;;;;;3.58;87.99;91128.47;4980552;28;20018;-88
2021/10/12 06:40:27;;;;;;;12.95;6.85;;;;;;;3.62;87.92;91132.00;4978655;28;20026;-88
2021/10/12 06:42:52;;;;;;;12.73;7.07;;;;;;;3.62;87.96;91133.81;5011984;28;20029;-88
2021/10/12 06:45:19;;;;;;;11.63;7.45;;;;;;;3.59;87.82;91130.75;4995553;28;20026;-88
2021/10/12 06:47:45;;;;;;;14.48;8.77;;;;;;;3.63;87.81;91125.03;5011709;28;20026;-88
2021/10/12 06:50:11;;;;;;;12.30;6.93;;;;;;;3.65;87.39;91125.53;5053490;23;20044;-85
2021/10/12 06:52:37;;;;;;;12.98;7.25;;;;;;;3.64;87.32;91122.19;5015826;28;20029;-88
2021/10/12 06:55:02;;;;;;;12.68;7.22;;;;;;;3.68;87.13;91117.25;5050467;28;20024;-88
2021/10/12 06:57:28;;;;;;;14.77;7.13;;;;;;;3.66;87.18;91122.66;5047341;28;20057;-88
2021/10/12 06:59:54;;;;;;;13.73;7.18;;;;;;;3.66;87.29;91117.50;5003049;28;20071;-88
2021/10/12 07:02:19;;;;;;;14.77;7.10;;;;;;;3.66;87.58;91112.34;5050589;28;20028;-88
2021/10/12 07:04:45;;;;;;;11.20;6.55;;;;;;;3.86;87.07;91119.03;5017653;28;20036;-88
2021/10/12 07:07:10;;;;;;;12.75;6.22;;;;;;;3.93;87.64;91114.28;5031151;28;20021;-90
2021/10/12 07:09:36;;;;;;;12.88;8.13;;;;;;;4.00;88.05;91119.06;5014440;28;20030;-88
2021/10/12 07:12:01;;;;;;;13.77;8.73;;;;;;;4.02;88.12;91128.03;5014964;28;20500;-88
2021/10/12 07:14:27;;;;;;;9.70;6.20;;;;;;;4.13;87.78;91128.63;5014136;28;20025;-89
2021/10/12 07:16:53;;;;;;;12.00;5.32;;;;;;;4.23;87.15;91136.22;5014448;28;20088;-88
2021/10/12 07:19:18;;;;;;;9.52;4.47;;;;;;;4.26;87.44;91130.50;5012442;28;20493;-89
2021/10/12 07:21:44;;;;;;;9.50;5.20;;;;;;;4.34;87.37;91130.88;5030650;28;20029;-88
2021/10/12 07:24:09;;;;;;;7.18;4.70;;;;;;;4.51;87.49;91133.69;5032414;28;20025;-88
2021/10/12 07:26:34;;;;;;;9.57;4.75;;;;;;;4.55;88.68;91124.31;5030723;28;20017;-89
2021/10/12 07:29:00;;;;;;;9.13;5.50;;;;;;;4.66;88.31;91124.91;5013626;28;20029;-89
2021/10/12 07:31:25;;;;;;;8.63;4.82;;;;;;;4.76;86.73;91120.31;5047195;28;20025;-88
2021/10/12 07:33:51;;;;;;;9.02;4.68;;;;;;;4.86;86.18;91119.38;5014466;28;20108;-88
2021/10/12 07:36:16;;;;;;;7.53;4.15;;;;;;;5.00;85.34;91120.13;5037833;28;20619;-88
2021/10/12 07:38:42;;;;;;;9.75;4.18;;;;;;;5.08;83.84;91129.00;5050208;28;20032;-88
2021/10/12 07:41:07;;;;;;;8.35;4.30;;;;;;;5.07;83.82;91119.75;5013591;28;20080;-88
2021/10/12 07:43:33;;;;;;;8.43;4.20;;;;;;;5.16;83.72;91125.78;5013766;28;20032;-88
2021/10/12 07:45:58;;;;;;;7.70;4.60;;;;;;;5.26;84.33;91130.72;5041752;28;20044;-89
2021/10/12 07:48:24;;;;;;;8.18;3.55;;;;;;;5.44;84.06;91133.44;5024716;28;20029;-88
2021/10/12 07:50:50;;;;;;;8.50;3.92;;;;;;;5.56;83.76;91125.97;5050569;28;20432;-88
2021/10/12 07:53:15;;;;;;;10.88;3.50;;;;;;;5.62;83.26;91131.78;5031487;28;20021;-88
2021/10/12 07:58:32;;;;;;;8.30;3.22;;;;;;;5.83;82.90;91119.94;5032652;28;20033;-90
2021/10/12 08:00:58;;;;;;;9.30;3.80;;;;;;;5.97;82.96;91132.84;5018871;28;20048;-89
2021/10/12 08:03:23;;;;;;;4.55;2.60;;;;;;;5.96;81.41;91131.31;5035650;28;20021;-89
2021/10/12 08:05:48;;;;;;;6.97;1.90;;;;;;;6.09;78.20;91125.31;5035705;28;20024;-88
2021/10/12 08:08:14;;;;;;;6.03;1.60;;;;;;;6.22;76.15;91127.09;5035977;28;20659;-87
2021/10/12 08:10:39;;;;;;;3.05;1.45;;;;;;;6.05;75.82;91131.38;5052011;28;20025;-88
2021/10/12 08:13:08;;;;;;;8.18;2.35;;;;;;;6.03;79.18;91130.91;5051931;28;20316;-90
2021/10/12 08:15:34;;;;;;;6.35;2.65;;;;;;;6.20;79.79;91134.38;5052994;28;20485;-89
2021/10/12 08:17:59;;;;;;;8.13;4.53;;;;;;;6.23;79.36;91136.38;5036230;28;20036;-90
2021/10/12 08:20:24;;;;;;;8.30;1.38;;;;;;;6.20;73.30;91142.13;5032651;28;20021;-89
2021/10/12 08:22:50;;;;;;;7.28;1.77;;;;;;;6.20;73.91;91144.72;5033123;28;20036;-88
2021/10/12 08:25:15;;;;;;;4.93;1.40;;;;;;;6.03;73.00;91141.25;5016473;28;20022;-89
2021/10/12 08:27:41;;;;;;;5.03;1.60;;;;;;;6.06;74.00;91141.44;5016599;28;20075;-88
2021/10/12 08:30:08;;;;;;;5.22;1.45;;;;;;;6.11;73.67;91130.97;5016915;28;20037;-89
2021/10/12 08:32:33;;;;;;;5.40;1.20;;;;;;;6.19;74.46;91134.69;5017031;28;20115;-88
2021/10/12 08:34:59;;;;;;;5.10;0.93;;;;;;;6.22;72.63;91136.69;5017271;28;20062;-88
2021/10/12 08:37:24;;;;;;;5.22;1.38;;;;;;;6.34;71.58;91138.72;5016931;28;20022;-88
2021/10/12 08:39:50;;;;;;;4.32;1.08;;;;;;;6.50;69.75;91136.50;5016670;28;20035;-88
2021/10/12 08:42:32;;;;;;;6.72;1.23;;;;;;;6.53;70.94;91138.50;5016015;28;20021;-88
2021/10/12 08:44:59;;;;;;;3.95;0.88;;;;;;;6.54;70.09;91135.63;5023070;28;20025;-88
2021/10/12 08:47:24;;;;;;;2.55;0.95;;;;;;;6.50;68.56;91124.31;5052447;28;20086;-88
2021/10/12 08:49:51;;;;;;;4.07;0.82;;;;;;;6.46;70.40;91125.97;5037623;28;20033;-88
2021/10/12 08:52:16;;;;;;;3.70;0.98;;;;;;;6.45;70.33;91127.81;5035833;28;20032;-88
2021/10/12 08:54:41;;;;;;;3.97;1.40;;;;;;;6.46;69.99;91123.38;5053918;28;20420;-88
2021/10/12 08:57:07;;;;;;;4.50;1.63;;;;;;;6.37;72.06;91125.19;5019360;28;20021;-88
2021/10/12 08:59:32;;;;;;;3.63;0.93;;;;;;;6.44;68.86;91125.53;5035718;28;20028;-88
2021/10/12 09:02:00;;;;;;;6.53;1.00;;;;;;;6.28;69.11;91119.94;5016715;28;20028;-88
2021/10/12 09:04:39;;;;;;;3.40;1.00;;;;;;;6.38;69.27;91114.53;5052139;28;20537;-86
2021/10/12 09:07:04;;;;;;;3.65;1.00;;;;;;;6.27;69.15;91112.50;5035505;28;20504;-88
2021/10/12 09:09:34;;;;;;;4.07;1.15;;;;;;;6.44;68.86;91122.94;5035681;28;20028;-88
2021/10/12 09:11:59;;;;;;;3.42;0.98;;;;;;;6.50;68.97;91116.56;5053136;28;20027;-88
2021/10/12 09:14:25;;;;;;;5.88;1.20;;;;;;;6.25;71.29;91119.78;5052229;28;20025;-88
2021/10/12 09:16:50;;;;;;;2.47;1.10;;;;;;;6.19;71.30;91114.72;5052137;28;20041;-88
2021/10/12 09:19:17;;;;;;;5.97;1.20;;;;;;;6.19;71.34;91106.97;5052013;28;20029;-88
2021/10/12 09:21:46;;;;;;;3.95;1.42;;;;;;;6.33;71.10;91106.13;5035044;28;20025;-89
2021/10/12 09:24:20;;;;;;;6.20;1.42;;;;;;;6.34;70.60;91107.66;5035239;28;20366;-87
2021/10/12 09:26:50;;;;;;;8.95;1.48;;;;;;;6.16;71.14;91107.56;5052233;28;20481;-88
2021/10/12 09:29:37;;;;;;;4.40;0.98;;;;;;;6.38;70.86;91108.59;5052429;28;20477;-89
2021/10/12 09:32:07;;;;;;;3.47;1.23;;;;;;;6.50;71.39;91106.19;5051658;28;20032;-88
2021/10/12 09:34:32;;;;;;;6.15;1.52;;;;;;;6.51;70.21;91099.22;5019932;28;20080;-88
2021/10/12 09:36:58;;;;;;;3.72;1.70;;;;;;;6.85;69.33;91090.81;5052212;28;20028;-87
2021/10/12 09:39:39;;;;;;;4.22;1.30;;;;;;;6.86;71.13;91084.56;5053088;28;20025;-88
2021/10/12 09:42:08;;;;;;;5.05;1.40;;;;;;;7.13;70.09;91092.09;5052685;28;20082;-88
2021/10/12 09:44:34;;;;;;;3.17;1.25;;;;;;;7.09;69.49;91091.16;5031576;28;20029;-88
2021/10/12 09:47:09;;;;;;;4.82;1.48;;;;;;;7.03;69.28;91087.22;5014945;28;20029;-90
2021/10/12 09:49:34;;;;;;;4.10;1.60;;;;;;;7.15;69.71;91095.16;5051319;28;20021;-86
2021/10/12 09:52:04;;;;;;;4.82;1.50;;;;;;;7.33;68.25;91093.34;5035200;28;20035;-87
2021/10/12 09:54:33;;;;;;;3.75;1.35;;;;;;;7.24;69.25;91091.81;5052483;28;20025;-88
2021/10/12 09:57:00;;;;;;;4.22;1.38;;;;;;;7.47;70.32;91080.25;5050303;28;20485;-88
2021/10/12 09:59:26;;;;;;;4.82;1.50;;;;;;;7.46;69.77;91083.94;5015127;28;20461;-87
2021/10/12 10:01:51;;;;;;;5.55;1.92;;;;;;;7.65;67.75;91081.78;5000772;28;20021;-88
2021/10/12 10:04:22;;;;;;;9.63;2.20;;;;;;;7.37;69.13;91065.00;5018157;28;20573;-86
2021/10/12 10:06:48;;;;;;;5.88;1.83;;;;;;;7.49;70.57;91062.56;5035545;28;20043;-88
2021/10/12 10:09:14;;;;;;;5.72;1.65;;;;;;;7.66;70.06;91061.78;5035949;28;20070;-87
2021/10/12 10:11:42;;;;;;;5.53;1.77;;;;;;;7.61;69.38;91067.91;5053434;28;20020;-88
2021/10/12 10:14:09;;;;;;;3.97;1.70;;;;;;;7.56;68.22;91062.88;5021137;28;20025;-91
2021/10/12 10:16:36;;;;;;;8.15;1.90;;;;;;;7.59;68.68;91064.84;5020984;28;20021;-88
2021/10/12 10:19:01;;;;;;;8.90;2.20;;;;;;;7.62;69.48;91064.22;5020281;28;20109;-89
2021/10/12 10:21:26;;;;;;;4.38;1.70;;;;;;;7.62;67.25;91053.09;5036919;28;20095;-89
2021/10/12 10:24:01;;;;;;;5.82;1.60;;;;;;;7.47;68.11;91054.31;5053711;28;20021;-88
2021/10/12 10:26:31;;;;;;;6.18;1.70;;;;;;;7.58;68.73;91052.94;5037182;28;20024;-90
2021/10/12 10:29:24;;;;;;;9.95;2.25;;;;;;;7.51;68.59;91055.22;5036427;28;20208;-89
2021/10/12 10:31:58;;;;;;;8.18;2.50;;;;;;;7.66;69.33;91051.41;5033939;28;20037;-88
2021/10/12 10:34:31;;;;;;;;;;;;;;;7.75;68.20;91049.59;5052994;28;20092;-88
2021/10/12 10:37:15;;;;;;;5.55;2.13;;;;;;;7.55;68.45;91056.16;5036117;28;20357;-88
2021/10/12 10:39:41;;;;;;;7.53;2.13;;;;;;;7.79;68.63;91045.31;5053397;28;20021;-88
2021/10/12 10:42:06;;;;;;;6.32;2.30;;;;;;;7.85;67.33;91038.91;5053233;28;20040;-87
2021/10/12 10:44:54;;;;;;;9.50;2.13;;;;;;;7.83;67.74;91045.47;5047667;28;20465;-87
2021/10/12 10:47:41;;;;;;;7.88;2.40;;;;;;;7.90;68.21;91040.56;5043732;28;20473;-87
2021/10/12 10:50:25;;;;;;;11.77;2.50;;;;;;;7.84;67.17;91042.56;5051510;28;20029;-88
2021/10/12 10:52:52;;;;;;;5.55;2.30;;;;;;;7.81;67.24;91032.00;5031880;28;20022;-88
2021/10/12 10:55:27;;;;;;;8.60;2.70;;;;;;;8.04;72.67;91035.94;5034225;28;20087;-88
2021/10/12 10:58:08;;;;;;;5.28;2.20;;;;;;;8.01;66.38;91039.16;5051267;28;20021;-87
2021/10/12 11:00:44;;;;;;;6.47;2.63;;;;;;;7.84;65.85;91032.19;5051890;28;20040;-88
2021/10/12 11:03:25;;;;;;;5.00;2.10;;;;;;;7.88;66.40;91027.91;5051013;28;20041;-88
2021/10/12 11:05:51;;;;;;;6.38;2.08;;;;;;;7.88;66.11;91020.13;5051358;28;20416;-87
2021/10/12 11:08:21;;;;;;;4.30;1.95;;;;;;;7.92;65.24;91022.88;5051763;28;20041;-87
2021/10/12 11:10:54;;;;;;;4.65;2.22;;;;;;;7.64;65.86;91018.00;5034918;28;20022;-88
2021/10/12 11:13:42;;;;;;;4.93;2.10;;;;;;;7.59;66.30;91018.16;5035859;28;20020;-88
2021/10/12 11:16:12;;;;;;;8.07;2.00;;;;;;;7.92;66.09;91012.47;5035235;28;20021;-88
2021/10/12 11:18:39;;;;;;;6.97;2.13;;;;;;;8.14;66.72;91011.50;5035708;28;20025;-89
2021/10/12 11:21:15;;;;;;;7.75;2.40;;;;;;;7.96;65.27;91005.59;5052509;28;20104;-90
2021/10/12 11:23:41;;;;;;;8.23;2.58;;;;;;;8.07;66.87;91004.19;5019096;28;20017;-90
2021/10/12 11:26:15;;;;;;;7.68;2.10;;;;;;;7.92;66.65;91007.28;5037267;28;20036;-90
2021/10/12 11:28:43;;;;;;;3.58;1.70;;;;;;;8.11;65.25;91004.34;5019123;28;20025;-87
2021/10/12 11:31:12;;;;;;;7.35;2.17;;;;;;;7.71;65.41;90996.03;5035478;28;20363;-87
2021/10/12 11:33:45;;;;;;;7.28;2.00;;;;;;;7.94;65.25;90997.34;5018693;28;20025;-92
2021/10/12 11:36:15;;;;;;;4.60;1.90;;;;;;;8.05;65.26;91001.13;5053016;28;20508;-87
2021/10/12 11:38:45;;;;;;;9.52;2.10;;;;;;;7.62;64.29;90994.19;5035577;28;20496;-88